sensor_id;sensor_type;location;lat;lon;timestamp;P1;durP1;ratioP1;P2;durP2;ratioP2
20150;SDS011;10236;49.638;6.830;2022-09-21T00:01:32;3.97;;;2.23;;
20150;SDS011;10236;49.638;6.830;2022-09-21T00:03:59;4.17;;;2.00;;
20150;SDS011;10236;49.638;6.830;2022-09-21T00:06:26;7.00;;;2.60;;
20150;SDS011;10236;49.638;6.830;2022-09-21T00:08:53;3.93;;;2.00;;
20150;SDS011;10236;49.638;6.830;2022-09-21T00:11:20;3.70;;;1.90;;
20150;SDS011;10236;49.638;6.830;2022-09-21T00:13:50;3.57;;;1.90;;
20150;SDS011;10236;49.638;6.830;2022-09-21T00:16:17;3.87;;;1.63;;
20150;SDS011;10236;49.638;6.830;2022-09-21T00:18:43;3.10;;;1.67;;
20150;SDS011;10236;49.638;6.830;2022-09-21T00:21:11;3.93;;;1.73;;
20150;SDS011;10236;49.638;6.830;2022-09-21T00:23:38;8.23;;;1.90;;
20150;SDS011;10236;49.638;6.830;2022-09-21T00:26:05;5.30;;;1.60;;
20150;SDS011;10236;49.638;6.830;2022-09-21T00:28:31;3.90;;;1.73;;
20150;SDS011;10236;49.638;6.830;2022-09-21T00:31:01;3.10;;;1.30;;
20150;SDS011;10236;49.638;6.830;2022-09-21T00:33:28;5.47;;;2.03;;
20150;SDS011;10236;49.638;6.830;2022-09-21T00:35:54;2.63;;;1.73;;
20150;SDS011;10236;49.638;6.830;2022-09-21T00:38:20;5.87;;;2.13;;
20150;SDS011;10236;49.638;6.830;2022-09-21T00:40:46;5.90;;;2.27;;
20150;SDS011;10236;49.638;6.830;2022-09-21T00:43:16;3.57;;;1.73;;
20150;SDS011;10236;49.638;6.830;2022-09-21T00:45:42;5.53;;;1.87;;
20150;SDS011;10236;49.638;6.830;2022-09-21T00:48:09;3.27;;;1.57;;
20150;SDS011;10236;49.638;6.830;2022-09-21T00:50:35;4.10;;;1.70;;
20150;SDS011;10236;49.638;6.830;2022-09-21T00:53:03;6.13;;;2.57;;
20150;SDS011;10236;49.638;6.830;2022-09-21T00:55:37;6.00;;;1.93;;
20150;SDS011;10236;49.638;6.830;2022-09-21T00:58:07;4.87;;;2.10;;
20150;SDS011;10236;49.638;6.830;2022-09-21T01:00:36;2.23;;;1.73;;
20150;SDS011;10236;49.638;6.830;2022-09-21T01:03:02;5.67;;;1.93;;
20150;SDS011;10236;49.638;6.830;2022-09-21T01:05:29;4.37;;;1.87;;
20150;SDS011;10236;49.638;6.830;2022-09-21T01:07:56;5.63;;;2.37;;
20150;SDS011;10236;49.638;6.830;2022-09-21T01:10:24;4.17;;;2.10;;
20150;SDS011;10236;49.638;6.830;2022-09-21T01:15:28;6.17;;;2.27;;
20150;SDS011;10236;49.638;6.830;2022-09-21T01:20:31;4.03;;;2.20;;
20150;SDS011;10236;49.638;6.830;2022-09-21T01:23:14;8.10;;;2.83;;
20150;SDS011;10236;49.638;6.830;2022-09-21T01:28:28;4.30;;;2.37;;
20150;SDS011;10236;49.638;6.830;2022-09-21T01:30:58;5.13;;;2.40;;
20150;SDS011;10236;49.638;6.830;2022-09-21T01:33:34;8.50;;;2.07;;
20150;SDS011;10236;49.638;6.830;2022-09-21T01:36:03;5.00;;;2.10;;
20150;SDS011;10236;49.638;6.830;2022-09-21T01:38:42;3.43;;;2.07;;
20150;SDS011;10236;49.638;6.830;2022-09-21T01:41:09;3.20;;;1.70;;
20150;SDS011;10236;49.638;6.830;2022-09-21T01:43:38;5.37;;;1.97;;
20150;SDS011;10236;49.638;6.830;2022-09-21T01:46:06;4.60;;;2.20;;
20150;SDS011;10236;49.638;6.830;2022-09-21T01:48:37;4.17;;;1.83;;
20150;SDS011;10236;49.638;6.830;2022-09-21T01:51:06;3.20;;;2.20;;
20150;SDS011;10236;49.638;6.830;2022-09-21T01:53:43;5.33;;;1.70;;
20150;SDS011;10236;49.638;6.830;2022-09-21T01:58:51;6.73;;;1.53;;
20150;SDS011;10236;49.638;6.830;2022-09-21T02:01:20;5.50;;;1.93;;
20150;SDS011;10236;49.638;6.830;2022-09-21T02:03:51;3.73;;;2.00;;
20150;SDS011;10236;49.638;6.830;2022-09-21T02:06:19;6.57;;;2.83;;
20150;SDS011;10236;49.638;6.830;2022-09-21T02:08:45;3.57;;;2.10;;
20150;SDS011;10236;49.638;6.830;2022-09-21T02:11:11;4.63;;;1.87;;
20150;SDS011;10236;49.638;6.830;2022-09-21T02:13:38;8.63;;;2.30;;
20150;SDS011;10236;49.638;6.830;2022-09-21T02:20:57;5.67;;;1.70;;
20150;SDS011;10236;49.638;6.830;2022-09-21T02:23:31;2.70;;;1.80;;
20150;SDS011;10236;49.638;6.830;2022-09-21T02:31:00;4.70;;;1.90;;
20150;SDS011;10236;49.638;6.830;2022-09-21T02:33:29;8.20;;;2.27;;
20150;SDS011;10236;49.638;6.830;2022-09-21T02:36:10;5.37;;;1.90;;
20150;SDS011;10236;49.638;6.830;2022-09-21T02:41:05;3.03;;;1.90;;
20150;SDS011;10236;49.638;6.830;2022-09-21T02:43:34;6.67;;;2.23;;
20150;SDS011;10236;49.638;6.830;2022-09-21T02:46:12;5.53;;;2.03;;
20150;SDS011;10236;49.638;6.830;2022-09-21T02:48:45;3.87;;;2.37;;
20150;SDS011;10236;49.638;6.830;2022-09-21T02:51:15;8.77;;;2.60;;
20150;SDS011;10236;49.638;6.830;2022-09-21T02:53:42;4.23;;;2.37;;
20150;SDS011;10236;49.638;6.830;2022-09-21T02:56:09;4.77;;;2.33;;
20150;SDS011;10236;49.638;6.830;2022-09-21T02:58:37;4.60;;;2.03;;
20150;SDS011;10236;49.638;6.830;2022-09-21T03:01:04;3.60;;;2.43;;
20150;SDS011;10236;49.638;6.830;2022-09-21T03:03:32;5.20;;;2.63;;
20150;SDS011;10236;49.638;6.830;2022-09-21T03:05:58;7.47;;;3.07;;
20150;SDS011;10236;49.638;6.830;2022-09-21T03:08:26;4.43;;;2.43;;
20150;SDS011;10236;49.638;6.830;2022-09-21T03:10:52;4.77;;;2.70;;
20150;SDS011;10236;49.638;6.830;2022-09-21T03:13:18;2.93;;;2.10;;
20150;SDS011;10236;49.638;6.830;2022-09-21T03:15:44;5.43;;;3.03;;
20150;SDS011;10236;49.638;6.830;2022-09-21T03:18:11;5.63;;;3.17;;
20150;SDS011;10236;49.638;6.830;2022-09-21T03:20:38;5.93;;;2.73;;
20150;SDS011;10236;49.638;6.830;2022-09-21T03:23:05;6.60;;;3.17;;
20150;SDS011;10236;49.638;6.830;2022-09-21T03:25:31;7.07;;;3.60;;
20150;SDS011;10236;49.638;6.830;2022-09-21T03:27:57;7.43;;;3.10;;
20150;SDS011;10236;49.638;6.830;2022-09-21T03:30:23;7.03;;;3.97;;
20150;SDS011;10236;49.638;6.830;2022-09-21T03:32:50;6.13;;;3.37;;
20150;SDS011;10236;49.638;6.830;2022-09-21T03:35:16;4.27;;;3.47;;
20150;SDS011;10236;49.638;6.830;2022-09-21T03:37:42;8.77;;;4.30;;
20150;SDS011;10236;49.638;6.830;2022-09-21T03:40:10;7.93;;;3.30;;
20150;SDS011;10236;49.638;6.830;2022-09-21T03:42:36;4.27;;;2.83;;
20150;SDS011;10236;49.638;6.830;2022-09-21T03:45:02;4.33;;;2.40;;
20150;SDS011;10236;49.638;6.830;2022-09-21T03:47:28;2.93;;;2.37;;
20150;SDS011;10236;49.638;6.830;2022-09-21T03:49:54;7.17;;;5.13;;
20150;SDS011;10236;49.638;6.830;2022-09-21T03:52:20;8.07;;;7.27;;
20150;SDS011;10236;49.638;6.830;2022-09-21T03:54:47;5.63;;;3.13;;
20150;SDS011;10236;49.638;6.830;2022-09-21T03:57:12;5.53;;;2.90;;
20150;SDS011;10236;49.638;6.830;2022-09-21T03:59:38;3.07;;;2.37;;
20150;SDS011;10236;49.638;6.830;2022-09-21T04:02:05;7.87;;;3.20;;
20150;SDS011;10236;49.638;6.830;2022-09-21T04:04:31;5.53;;;4.20;;
20150;SDS011;10236;49.638;6.830;2022-09-21T04:06:57;6.10;;;3.00;;
20150;SDS011;10236;49.638;6.830;2022-09-21T04:09:23;6.87;;;3.00;;
20150;SDS011;10236;49.638;6.830;2022-09-21T04:11:49;9.30;;;3.47;;
20150;SDS011;10236;49.638;6.830;2022-09-21T04:14:17;6.70;;;3.50;;
20150;SDS011;10236;49.638;6.830;2022-09-21T04:16:43;8.30;;;3.70;;
20150;SDS011;10236;49.638;6.830;2022-09-21T04:19:09;4.57;;;3.23;;
20150;SDS011;10236;49.638;6.830;2022-09-21T04:21:35;6.57;;;3.17;;
20150;SDS011;10236;49.638;6.830;2022-09-21T04:24:01;4.90;;;2.90;;
20150;SDS011;10236;49.638;6.830;2022-09-21T04:26:29;4.03;;;2.90;;
20150;SDS011;10236;49.638;6.830;2022-09-21T04:28:56;4.97;;;3.27;;
20150;SDS011;10236;49.638;6.830;2022-09-21T04:31:23;4.77;;;3.20;;
20150;SDS011;10236;49.638;6.830;2022-09-21T04:33:50;3.83;;;3.00;;
20150;SDS011;10236;49.638;6.830;2022-09-21T04:36:16;4.20;;;3.20;;
20150;SDS011;10236;49.638;6.830;2022-09-21T04:38:42;10.70;;;3.23;;
20150;SDS011;10236;49.638;6.830;2022-09-21T04:41:09;4.10;;;2.77;;
20150;SDS011;10236;49.638;6.830;2022-09-21T04:43:35;3.53;;;2.80;;
20150;SDS011;10236;49.638;6.830;2022-09-21T04:46:04;6.20;;;4.47;;
20150;SDS011;10236;49.638;6.830;2022-09-21T04:48:31;9.40;;;5.90;;
20150;SDS011;10236;49.638;6.830;2022-09-21T04:50:57;10.77;;;7.47;;
20150;SDS011;10236;49.638;6.830;2022-09-21T04:53:23;15.87;;;8.87;;
20150;SDS011;10236;49.638;6.830;2022-09-21T04:55:48;37.63;;;21.33;;
20150;SDS011;10236;49.638;6.830;2022-09-21T04:58:15;35.17;;;22.83;;
20150;SDS011;10236;49.638;6.830;2022-09-21T05:00:40;41.03;;;22.37;;
20150;SDS011;10236;49.638;6.830;2022-09-21T05:03:06;55.47;;;32.73;;
20150;SDS011;10236;49.638;6.830;2022-09-21T05:05:32;36.47;;;23.33;;
20150;SDS011;10236;49.638;6.830;2022-09-21T05:07:59;55.03;;;31.83;;
20150;SDS011;10236;49.638;6.830;2022-09-21T05:10:25;33.80;;;20.80;;
20150;SDS011;10236;49.638;6.830;2022-09-21T05:12:51;25.63;;;15.40;;
20150;SDS011;10236;49.638;6.830;2022-09-21T05:15:17;17.77;;;11.00;;
20150;SDS011;10236;49.638;6.830;2022-09-21T05:17:42;20.13;;;7.83;;
20150;SDS011;10236;49.638;6.830;2022-09-21T05:20:09;10.97;;;8.23;;
20150;SDS011;10236;49.638;6.830;2022-09-21T05:22:35;9.47;;;7.10;;
20150;SDS011;10236;49.638;6.830;2022-09-21T05:25:01;8.17;;;7.07;;
20150;SDS011;10236;49.638;6.830;2022-09-21T05:27:27;10.53;;;7.50;;
20150;SDS011;10236;49.638;6.830;2022-09-21T05:29:53;11.20;;;7.83;;
20150;SDS011;10236;49.638;6.830;2022-09-21T05:32:23;16.20;;;9.50;;
20150;SDS011;10236;49.638;6.830;2022-09-21T05:34:52;10.47;;;7.83;;
20150;SDS011;10236;49.638;6.830;2022-09-21T05:37:39;11.57;;;8.27;;
20150;SDS011;10236;49.638;6.830;2022-09-21T05:40:08;16.40;;;8.13;;
20150;SDS011;10236;49.638;6.830;2022-09-21T05:42:35;11.53;;;8.10;;
20150;SDS011;10236;49.638;6.830;2022-09-21T05:45:01;16.30;;;9.80;;
20150;SDS011;10236;49.638;6.830;2022-09-21T05:47:36;71.20;;;29.40;;
20150;SDS011;10236;49.638;6.830;2022-09-21T05:55:34;128.83;;;48.20;;
20150;SDS011;10236;49.638;6.830;2022-09-21T05:58:52;91.77;;;39.80;;
20150;SDS011;10236;49.638;6.830;2022-09-21T06:01:03;61.23;;;26.73;;
20150;SDS011;10236;49.638;6.830;2022-09-21T06:03:32;112.93;;;41.20;;
20150;SDS011;10236;49.638;6.830;2022-09-21T06:06:00;99.30;;;38.33;;
20150;SDS011;10236;49.638;6.830;2022-09-21T06:08:26;40.50;;;22.27;;
20150;SDS011;10236;49.638;6.830;2022-09-21T06:10:52;23.97;;;15.37;;
20150;SDS011;10236;49.638;6.830;2022-09-21T06:13:18;19.30;;;14.13;;
20150;SDS011;10236;49.638;6.830;2022-09-21T06:15:44;18.00;;;12.77;;
20150;SDS011;10236;49.638;6.830;2022-09-21T06:18:10;16.93;;;11.50;;
20150;SDS011;10236;49.638;6.830;2022-09-21T06:20:36;15.70;;;11.70;;
20150;SDS011;10236;49.638;6.830;2022-09-21T06:23:03;17.17;;;10.87;;
20150;SDS011;10236;49.638;6.830;2022-09-21T06:25:29;14.90;;;9.93;;
20150;SDS011;10236;49.638;6.830;2022-09-21T06:27:56;13.03;;;8.77;;
20150;SDS011;10236;49.638;6.830;2022-09-21T06:30:26;18.10;;;9.93;;
20150;SDS011;10236;49.638;6.830;2022-09-21T06:32:52;19.13;;;10.33;;
20150;SDS011;10236;49.638;6.830;2022-09-21T06:35:17;16.20;;;9.53;;
20150;SDS011;10236;49.638;6.830;2022-09-21T06:37:43;14.27;;;10.63;;
20150;SDS011;10236;49.638;6.830;2022-09-21T06:40:09;17.37;;;10.50;;
20150;SDS011;10236;49.638;6.830;2022-09-21T06:42:35;18.63;;;10.90;;
20150;SDS011;10236;49.638;6.830;2022-09-21T06:45:01;23.83;;;12.47;;
20150;SDS011;10236;49.638;6.830;2022-09-21T06:47:27;22.43;;;12.70;;
20150;SDS011;10236;49.638;6.830;2022-09-21T06:49:53;19.70;;;11.80;;
20150;SDS011;10236;49.638;6.830;2022-09-21T06:52:19;15.77;;;11.60;;
20150;SDS011;10236;49.638;6.830;2022-09-21T06:54:45;24.43;;;11.03;;
20150;SDS011;10236;49.638;6.830;2022-09-21T06:57:11;16.47;;;9.63;;
20150;SDS011;10236;49.638;6.830;2022-09-21T06:59:37;17.03;;;10.00;;
20150;SDS011;10236;49.638;6.830;2022-09-21T07:02:03;22.23;;;13.57;;
20150;SDS011;10236;49.638;6.830;2022-09-21T07:04:30;20.03;;;10.73;;
20150;SDS011;10236;49.638;6.830;2022-09-21T07:06:56;20.67;;;9.60;;
20150;SDS011;10236;49.638;6.830;2022-09-21T07:09:22;13.63;;;9.13;;
20150;SDS011;10236;49.638;6.830;2022-09-21T07:11:48;15.33;;;8.90;;
20150;SDS011;10236;49.638;6.830;2022-09-21T07:14:14;12.27;;;7.63;;
20150;SDS011;10236;49.638;6.830;2022-09-21T07:16:39;11.77;;;6.77;;
20150;SDS011;10236;49.638;6.830;2022-09-21T07:19:06;12.80;;;7.10;;
20150;SDS011;10236;49.638;6.830;2022-09-21T07:21:32;13.53;;;7.83;;
20150;SDS011;10236;49.638;6.830;2022-09-21T07:23:58;9.93;;;6.10;;
20150;SDS011;10236;49.638;6.830;2022-09-21T07:26:24;11.60;;;6.80;;
20150;SDS011;10236;49.638;6.830;2022-09-21T07:28:50;17.27;;;6.43;;
20150;SDS011;10236;49.638;6.830;2022-09-21T07:31:16;11.40;;;6.27;;
20150;SDS011;10236;49.638;6.830;2022-09-21T07:33:43;6.07;;;4.90;;
20150;SDS011;10236;49.638;6.830;2022-09-21T07:36:12;9.20;;;5.13;;
20150;SDS011;10236;49.638;6.830;2022-09-21T07:38:42;7.27;;;4.57;;
20150;SDS011;10236;49.638;6.830;2022-09-21T07:41:09;7.97;;;4.17;;
20150;SDS011;10236;49.638;6.830;2022-09-21T07:43:35;5.63;;;3.57;;
20150;SDS011;10236;49.638;6.830;2022-09-21T07:46:04;8.83;;;4.20;;
20150;SDS011;10236;49.638;6.830;2022-09-21T07:48:30;7.90;;;2.90;;
20150;SDS011;10236;49.638;6.830;2022-09-21T07:51:06;9.20;;;2.80;;
20150;SDS011;10236;49.638;6.830;2022-09-21T07:53:33;4.07;;;2.40;;
20150;SDS011;10236;49.638;6.830;2022-09-21T07:56:00;3.63;;;1.80;;
20150;SDS011;10236;49.638;6.830;2022-09-21T07:58:26;6.33;;;2.10;;
20150;SDS011;10236;49.638;6.830;2022-09-21T08:01:11;4.27;;;2.00;;
20150;SDS011;10236;49.638;6.830;2022-09-21T08:03:37;5.23;;;1.50;;
20150;SDS011;10236;49.638;6.830;2022-09-21T08:06:03;4.17;;;1.77;;
20150;SDS011;10236;49.638;6.830;2022-09-21T08:08:29;9.93;;;1.73;;
20150;SDS011;10236;49.638;6.830;2022-09-21T08:10:55;4.63;;;1.50;;
20150;SDS011;10236;49.638;6.830;2022-09-21T08:13:26;4.37;;;1.60;;
20150;SDS011;10236;49.638;6.830;2022-09-21T08:15:59;5.33;;;1.37;;
20150;SDS011;10236;49.638;6.830;2022-09-21T08:18:25;1.20;;;0.77;;
20150;SDS011;10236;49.638;6.830;2022-09-21T08:20:52;6.73;;;1.50;;
20150;SDS011;10236;49.638;6.830;2022-09-21T08:23:18;4.07;;;1.33;;
20150;SDS011;10236;49.638;6.830;2022-09-21T08:25:44;4.30;;;1.00;;
20150;SDS011;10236;49.638;6.830;2022-09-21T08:28:10;4.63;;;1.30;;
20150;SDS011;10236;49.638;6.830;2022-09-21T08:30:36;2.53;;;1.03;;
20150;SDS011;10236;49.638;6.830;2022-09-21T08:33:02;3.97;;;1.13;;
20150;SDS011;10236;49.638;6.830;2022-09-21T08:35:28;1.93;;;0.90;;
20150;SDS011;10236;49.638;6.830;2022-09-21T08:37:54;7.67;;;1.20;;
20150;SDS011;10236;49.638;6.830;2022-09-21T08:40:20;3.37;;;1.10;;
20150;SDS011;10236;49.638;6.830;2022-09-21T08:45:16;1.03;;;0.70;;
20150;SDS011;10236;49.638;6.830;2022-09-21T08:47:46;5.03;;;0.97;;
20150;SDS011;10236;49.638;6.830;2022-09-21T08:50:28;4.50;;;1.00;;
20150;SDS011;10236;49.638;6.830;2022-09-21T08:52:57;6.50;;;1.27;;
20150;SDS011;10236;49.638;6.830;2022-09-21T08:55:25;5.63;;;0.97;;
20150;SDS011;10236;49.638;6.830;2022-09-21T08:57:51;6.90;;;1.20;;
20150;SDS011;10236;49.638;6.830;2022-09-21T09:00:18;3.27;;;0.87;;
20150;SDS011;10236;49.638;6.830;2022-09-21T09:03:07;5.23;;;1.00;;
20150;SDS011;10236;49.638;6.830;2022-09-21T09:05:41;2.30;;;0.77;;
20150;SDS011;10236;49.638;6.830;2022-09-21T09:16:10;2.00;;;0.70;;
20150;SDS011;10236;49.638;6.830;2022-09-21T09:18:50;5.70;;;1.10;;
20150;SDS011;10236;49.638;6.830;2022-09-21T09:21:19;9.17;;;1.27;;
20150;SDS011;10236;49.638;6.830;2022-09-21T09:23:48;4.67;;;0.73;;
20150;SDS011;10236;49.638;6.830;2022-09-21T09:26:19;2.73;;;0.83;;
20150;SDS011;10236;49.638;6.830;2022-09-21T09:28:47;2.53;;;0.90;;
20150;SDS011;10236;49.638;6.830;2022-09-21T09:31:18;4.10;;;1.30;;
20150;SDS011;10236;49.638;6.830;2022-09-21T09:33:57;3.00;;;1.20;;
20150;SDS011;10236;49.638;6.830;2022-09-21T09:36:28;6.10;;;1.50;;
20150;SDS011;10236;49.638;6.830;2022-09-21T09:38:57;2.83;;;0.83;;
20150;SDS011;10236;49.638;6.830;2022-09-21T09:51:27;3.22;;;0.90;;
20150;SDS011;10236;49.638;6.830;2022-09-21T09:53:53;4.47;;;0.93;;
20150;SDS011;10236;49.638;6.830;2022-09-21T09:56:21;5.20;;;1.27;;
20150;SDS011;10236;49.638;6.830;2022-09-21T09:58:55;6.78;;;1.40;;
20150;SDS011;10236;49.638;6.830;2022-09-21T10:01:35;3.47;;;0.90;;
20150;SDS011;10236;49.638;6.830;2022-09-21T10:04:09;6.25;;;1.10;;
20150;SDS011;10236;49.638;6.830;2022-09-21T10:06:35;2.13;;;0.70;;
20150;SDS011;10236;49.638;6.830;2022-09-21T10:11:46;6.10;;;0.90;;
20150;SDS011;10236;49.638;6.830;2022-09-21T10:14:16;2.97;;;0.90;;
20150;SDS011;10236;49.638;6.830;2022-09-21T10:16:43;8.02;;;1.10;;
20150;SDS011;10236;49.638;6.830;2022-09-21T10:19:16;3.75;;;0.80;;
20150;SDS011;10236;49.638;6.830;2022-09-21T10:21:43;2.83;;;0.80;;
20150;SDS011;10236;49.638;6.830;2022-09-21T10:24:29;2.58;;;0.65;;
20150;SDS011;10236;49.638;6.830;2022-09-21T10:27:11;1.67;;;0.65;;
20150;SDS011;10236;49.638;6.830;2022-09-21T10:29:44;3.38;;;0.95;;
20150;SDS011;10236;49.638;6.830;2022-09-21T10:34:37;5.15;;;0.73;;
20150;SDS011;10236;49.638;6.830;2022-09-21T10:39:48;2.08;;;0.88;;
20150;SDS011;10236;49.638;6.830;2022-09-21T10:42:14;2.50;;;0.68;;
20150;SDS011;10236;49.638;6.830;2022-09-21T10:44:49;2.17;;;0.60;;
20150;SDS011;10236;49.638;6.830;2022-09-21T10:47:16;2.58;;;0.60;;
20150;SDS011;10236;49.638;6.830;2022-09-21T10:49:44;2.28;;;0.65;;
20150;SDS011;10236;49.638;6.830;2022-09-21T10:52:11;3.75;;;0.73;;
20150;SDS011;10236;49.638;6.830;2022-09-21T10:54:37;3.80;;;0.90;;
20150;SDS011;10236;49.638;6.830;2022-09-21T10:57:08;3.90;;;0.82;;
20150;SDS011;10236;49.638;6.830;2022-09-21T10:59:35;1.38;;;0.55;;
20150;SDS011;10236;49.638;6.830;2022-09-21T11:02:02;2.47;;;0.60;;
20150;SDS011;10236;49.638;6.830;2022-09-21T11:04:48;4.22;;;0.70;;
20150;SDS011;10236;49.638;6.830;2022-09-21T11:07:16;2.70;;;0.50;;
20150;SDS011;10236;49.638;6.830;2022-09-21T11:14:55;4.43;;;0.60;;
20150;SDS011;10236;49.638;6.830;2022-09-21T11:17:46;2.60;;;0.77;;
20150;SDS011;10236;49.638;6.830;2022-09-21T11:20:15;1.83;;;0.63;;
20150;SDS011;10236;49.638;6.830;2022-09-21T11:25:22;1.92;;;0.98;;
20150;SDS011;10236;49.638;6.830;2022-09-21T11:28:01;1.90;;;0.50;;
20150;SDS011;10236;49.638;6.830;2022-09-21T11:30:31;2.25;;;0.80;;
20150;SDS011;10236;49.638;6.830;2022-09-21T11:35:32;1.70;;;0.77;;
20150;SDS011;10236;49.638;6.830;2022-09-21T11:38:21;4.38;;;0.60;;
20150;SDS011;10236;49.638;6.830;2022-09-21T11:41:11;4.93;;;0.90;;
20150;SDS011;10236;49.638;6.830;2022-09-21T11:46:10;2.03;;;0.50;;
20150;SDS011;10236;49.638;6.830;2022-09-21T11:54:13;1.13;;;0.60;;
20150;SDS011;10236;49.638;6.830;2022-09-21T11:56:49;3.35;;;0.65;;
20150;SDS011;10236;49.638;6.830;2022-09-21T11:59:25;1.23;;;0.50;;
20150;SDS011;10236;49.638;6.830;2022-09-21T12:02:10;1.67;;;0.70;;
20150;SDS011;10236;49.638;6.830;2022-09-21T12:04:41;1.17;;;0.40;;
20150;SDS011;10236;49.638;6.830;2022-09-21T12:07:28;1.75;;;0.50;;
20150;SDS011;10236;49.638;6.830;2022-09-21T12:12:52;1.83;;;0.50;;
20150;SDS011;10236;49.638;6.830;2022-09-21T12:15:36;1.38;;;0.50;;
20150;SDS011;10236;49.638;6.830;2022-09-21T12:18:39;4.78;;;0.68;;
20150;SDS011;10236;49.638;6.830;2022-09-21T12:21:12;0.93;;;0.50;;
20150;SDS011;10236;49.638;6.830;2022-09-21T12:23:47;3.03;;;0.63;;
20150;SDS011;10236;49.638;6.830;2022-09-21T12:26:20;1.80;;;0.60;;
20150;SDS011;10236;49.638;6.830;2022-09-21T12:34:08;1.27;;;0.50;;
20150;SDS011;10236;49.638;6.830;2022-09-21T12:37:12;2.55;;;0.95;;
20150;SDS011;10236;49.638;6.830;2022-09-21T12:39:50;2.70;;;1.00;;
20150;SDS011;10236;49.638;6.830;2022-09-21T12:42:24;2.30;;;0.63;;
20150;SDS011;10236;49.638;6.830;2022-09-21T12:44:56;1.40;;;0.80;;
20150;SDS011;10236;49.638;6.830;2022-09-21T12:47:26;2.60;;;0.83;;
20150;SDS011;10236;49.638;6.830;2022-09-21T12:49:55;1.50;;;0.60;;
20150;SDS011;10236;49.638;6.830;2022-09-21T12:52:23;2.17;;;0.50;;
20150;SDS011;10236;49.638;6.830;2022-09-21T13:00:12;2.33;;;0.57;;
20150;SDS011;10236;49.638;6.830;2022-09-21T13:02:42;2.45;;;0.70;;
20150;SDS011;10236;49.638;6.830;2022-09-21T13:05:28;1.38;;;0.45;;
20150;SDS011;10236;49.638;6.830;2022-09-21T13:08:03;1.40;;;0.47;;
20150;SDS011;10236;49.638;6.830;2022-09-21T13:10:36;3.30;;;0.60;;
20150;SDS011;10236;49.638;6.830;2022-09-21T13:13:06;1.33;;;0.73;;
20150;SDS011;10236;49.638;6.830;2022-09-21T13:15:41;1.02;;;0.50;;
20150;SDS011;10236;49.638;6.830;2022-09-21T13:18:29;3.20;;;0.73;;
20150;SDS011;10236;49.638;6.830;2022-09-21T13:20:54;0.85;;;0.55;;
20150;SDS011;10236;49.638;6.830;2022-09-21T13:23:25;2.60;;;0.60;;
20150;SDS011;10236;49.638;6.830;2022-09-21T13:25:59;0.70;;;0.47;;
20150;SDS011;10236;49.638;6.830;2022-09-21T13:29:00;1.00;;;0.60;;
20150;SDS011;10236;49.638;6.830;2022-09-21T13:36:37;1.98;;;0.50;;
20150;SDS011;10236;49.638;6.830;2022-09-21T13:39:12;2.97;;;0.80;;
20150;SDS011;10236;49.638;6.830;2022-09-21T13:41:38;1.77;;;0.60;;
20150;SDS011;10236;49.638;6.830;2022-09-21T13:46:52;1.25;;;0.55;;
20150;SDS011;10236;49.638;6.830;2022-09-21T13:49:20;1.65;;;0.60;;
20150;SDS011;10236;49.638;6.830;2022-09-21T13:51:53;1.35;;;0.50;;
20150;SDS011;10236;49.638;6.830;2022-09-21T13:54:25;1.15;;;0.40;;
20150;SDS011;10236;49.638;6.830;2022-09-21T13:57:03;1.13;;;0.55;;
20150;SDS011;10236;49.638;6.830;2022-09-21T13:59:30;1.50;;;0.60;;
20150;SDS011;10236;49.638;6.830;2022-09-21T14:01:57;3.60;;;0.70;;
20150;SDS011;10236;49.638;6.830;2022-09-21T14:04:27;5.13;;;0.60;;
20150;SDS011;10236;49.638;6.830;2022-09-21T14:06:54;0.93;;;0.50;;
20150;SDS011;10236;49.638;6.830;2022-09-21T14:09:23;4.30;;;0.60;;
20150;SDS011;10236;49.638;6.830;2022-09-21T14:11:52;2.55;;;0.50;;
20150;SDS011;10236;49.638;6.830;2022-09-21T14:14:32;0.82;;;0.50;;
20150;SDS011;10236;49.638;6.830;2022-09-21T14:17:01;2.15;;;0.60;;
20150;SDS011;10236;49.638;6.830;2022-09-21T14:24:33;1.88;;;0.55;;
20150;SDS011;10236;49.638;6.830;2022-09-21T14:27:46;2.17;;;0.40;;
20150;SDS011;10236;49.638;6.830;2022-09-21T14:33:20;1.60;;;0.50;;
20150;SDS011;10236;49.638;6.830;2022-09-21T14:59:55;1.05;;;0.40;;
20150;SDS011;10236;49.638;6.830;2022-09-21T15:02:25;1.02;;;0.52;;
20150;SDS011;10236;49.638;6.830;2022-09-21T15:08:10;3.30;;;0.90;;
20150;SDS011;10236;49.638;6.830;2022-09-21T15:16:02;4.32;;;1.30;;
20150;SDS011;10236;49.638;6.830;2022-09-21T15:18:32;1.90;;;0.75;;
20150;SDS011;10236;49.638;6.830;2022-09-21T15:26:44;2.13;;;0.40;;
20150;SDS011;10236;49.638;6.830;2022-09-21T15:29:17;1.10;;;0.60;;
20150;SDS011;10236;49.638;6.830;2022-09-21T15:31:45;2.67;;;1.00;;
20150;SDS011;10236;49.638;6.830;2022-09-21T15:34:11;2.17;;;1.10;;
20150;SDS011;10236;49.638;6.830;2022-09-21T15:36:39;1.42;;;0.50;;
20150;SDS011;10236;49.638;6.830;2022-09-21T15:39:06;0.90;;;0.38;;
20150;SDS011;10236;49.638;6.830;2022-09-21T15:41:45;1.15;;;0.32;;
20150;SDS011;10236;49.638;6.830;2022-09-21T15:44:16;1.33;;;0.47;;
20150;SDS011;10236;49.638;6.830;2022-09-21T15:46:44;2.72;;;0.50;;
20150;SDS011;10236;49.638;6.830;2022-09-21T15:49:16;0.90;;;0.50;;
20150;SDS011;10236;49.638;6.830;2022-09-21T15:51:45;0.38;;;0.38;;
20150;SDS011;10236;49.638;6.830;2022-09-21T15:54:23;1.15;;;0.60;;
20150;SDS011;10236;49.638;6.830;2022-09-21T15:56:51;1.02;;;0.45;;
20150;SDS011;10236;49.638;6.830;2022-09-21T15:59:18;0.75;;;0.38;;
20150;SDS011;10236;49.638;6.830;2022-09-21T16:01:47;1.75;;;0.68;;
20150;SDS011;10236;49.638;6.830;2022-09-21T16:04:21;1.70;;;0.50;;
20150;SDS011;10236;49.638;6.830;2022-09-21T16:06:59;1.25;;;0.60;;
20150;SDS011;10236;49.638;6.830;2022-09-21T16:09:31;1.00;;;0.50;;
20150;SDS011;10236;49.638;6.830;2022-09-21T16:11:59;1.63;;;0.40;;
20150;SDS011;10236;49.638;6.830;2022-09-21T16:14:25;0.68;;;0.38;;
20150;SDS011;10236;49.638;6.830;2022-09-21T16:22:12;0.95;;;0.50;;
20150;SDS011;10236;49.638;6.830;2022-09-21T16:24:49;0.85;;;0.50;;
20150;SDS011;10236;49.638;6.830;2022-09-21T16:27:16;1.38;;;0.65;;
20150;SDS011;10236;49.638;6.830;2022-09-21T16:29:43;1.67;;;0.50;;
20150;SDS011;10236;49.638;6.830;2022-09-21T16:32:18;2.58;;;0.60;;
20150;SDS011;10236;49.638;6.830;2022-09-21T16:34:45;0.57;;;0.40;;
20150;SDS011;10236;49.638;6.830;2022-09-21T16:39:54;1.23;;;0.50;;
20150;SDS011;10236;49.638;6.830;2022-09-21T16:42:21;1.25;;;0.80;;
20150;SDS011;10236;49.638;6.830;2022-09-21T16:44:47;1.55;;;0.60;;
20150;SDS011;10236;49.638;6.830;2022-09-21T16:47:15;0.75;;;0.40;;
20150;SDS011;10236;49.638;6.830;2022-09-21T16:49:42;1.45;;;0.50;;
20150;SDS011;10236;49.638;6.830;2022-09-21T16:52:08;1.23;;;0.80;;
20150;SDS011;10236;49.638;6.830;2022-09-21T16:54:34;0.80;;;0.52;;
20150;SDS011;10236;49.638;6.830;2022-09-21T16:57:02;2.80;;;0.70;;
20150;SDS011;10236;49.638;6.830;2022-09-21T16:59:30;0.90;;;0.50;;
20150;SDS011;10236;49.638;6.830;2022-09-21T17:01:57;0.90;;;0.50;;
20150;SDS011;10236;49.638;6.830;2022-09-21T17:04:25;0.80;;;0.50;;
20150;SDS011;10236;49.638;6.830;2022-09-21T17:06:51;2.85;;;0.82;;
20150;SDS011;10236;49.638;6.830;2022-09-21T17:09:25;1.75;;;0.70;;
20150;SDS011;10236;49.638;6.830;2022-09-21T17:11:51;2.30;;;0.70;;
20150;SDS011;10236;49.638;6.830;2022-09-21T17:14:20;2.10;;;0.70;;
20150;SDS011;10236;49.638;6.830;2022-09-21T17:16:47;1.67;;;0.75;;
20150;SDS011;10236;49.638;6.830;2022-09-21T17:19:13;1.80;;;0.45;;
20150;SDS011;10236;49.638;6.830;2022-09-21T17:21:39;1.30;;;0.70;;
20150;SDS011;10236;49.638;6.830;2022-09-21T17:24:05;2.30;;;0.60;;
20150;SDS011;10236;49.638;6.830;2022-09-21T17:26:31;1.67;;;0.70;;
20150;SDS011;10236;49.638;6.830;2022-09-21T17:28:58;1.47;;;0.50;;